sensor_id;sensor_type;location;lat;lon;timestamp;P1;durP1;ratioP1;P2;durP2;ratioP2
20381;SDS011;10350;51.280;12.400;2023-11-18T00:00:24;41.05;;;38.72;;
20381;SDS011;10350;51.280;12.400;2023-11-18T00:02:50;41.53;;;39.13;;
20381;SDS011;10350;51.280;12.400;2023-11-18T00:05:19;45.40;;;42.80;;
20381;SDS011;10350;51.280;12.400;2023-11-18T00:07:46;40.53;;;38.13;;
20381;SDS011;10350;51.280;12.400;2023-11-18T00:10:12;34.47;;;32.50;;
20381;SDS011;10350;51.280;12.400;2023-11-18T00:12:38;35.30;;;33.35;;
20381;SDS011;10350;51.280;12.400;2023-11-18T00:15:06;33.78;;;31.75;;
20381;SDS011;10350;51.280;12.400;2023-11-18T00:17:34;31.80;;;29.98;;
20381;SDS011;10350;51.280;12.400;2023-11-18T00:20:00;34.97;;;32.63;;
20381;SDS011;10350;51.280;12.400;2023-11-18T00:22:28;36.08;;;33.97;;
20381;SDS011;10350;51.280;12.400;2023-11-18T00:24:54;33.25;;;31.33;;
20381;SDS011;10350;51.280;12.400;2023-11-18T00:27:20;30.17;;;28.48;;
20381;SDS011;10350;51.280;12.400;2023-11-18T00:29:47;31.45;;;29.73;;
20381;SDS011;10350;51.280;12.400;2023-11-18T00:32:13;33.50;;;31.65;;
20381;SDS011;10350;51.280;12.400;2023-11-18T00:34:39;35.97;;;34.03;;
20381;SDS011;10350;51.280;12.400;2023-11-18T00:37:05;35.17;;;33.13;;
20381;SDS011;10350;51.280;12.400;2023-11-18T00:39:32;30.92;;;29.17;;
20381;SDS011;10350;51.280;12.400;2023-11-18T00:41:58;29.40;;;27.75;;
20381;SDS011;10350;51.280;12.400;2023-11-18T00:44:24;26.23;;;24.75;;
20381;SDS011;10350;51.280;12.400;2023-11-18T00:46:50;27.60;;;26.05;;
20381;SDS011;10350;51.280;12.400;2023-11-18T00:49:17;27.02;;;25.58;;
20381;SDS011;10350;51.280;12.400;2023-11-18T00:51:43;27.45;;;25.83;;
20381;SDS011;10350;51.280;12.400;2023-11-18T00:54:09;27.17;;;25.48;;
20381;SDS011;10350;51.280;12.400;2023-11-18T00:56:35;27.48;;;26.00;;
20381;SDS011;10350;51.280;12.400;2023-11-18T00:59:01;30.10;;;28.33;;
20381;SDS011;10350;51.280;12.400;2023-11-18T01:01:27;27.70;;;26.20;;
20381;SDS011;10350;51.280;12.400;2023-11-18T01:03:53;28.65;;;26.75;;
20381;SDS011;10350;51.280;12.400;2023-11-18T01:06:19;28.73;;;27.13;;
20381;SDS011;10350;51.280;12.400;2023-11-18T01:08:47;27.35;;;25.90;;
20381;SDS011;10350;51.280;12.400;2023-11-18T01:11:16;27.98;;;26.42;;
20381;SDS011;10350;51.280;12.400;2023-11-18T01:13:47;26.65;;;25.20;;
20381;SDS011;10350;51.280;12.400;2023-11-18T01:16:13;25.88;;;24.42;;
20381;SDS011;10350;51.280;12.400;2023-11-18T01:18:40;27.17;;;25.58;;
20381;SDS011;10350;51.280;12.400;2023-11-18T01:21:06;25.63;;;24.23;;
20381;SDS011;10350;51.280;12.400;2023-11-18T01:23:36;24.63;;;22.98;;
20381;SDS011;10350;51.280;12.400;2023-11-18T01:26:02;26.88;;;25.38;;
20381;SDS011;10350;51.280;12.400;2023-11-18T01:28:31;26.23;;;24.80;;
20381;SDS011;10350;51.280;12.400;2023-11-18T01:31:01;28.13;;;26.60;;
20381;SDS011;10350;51.280;12.400;2023-11-18T01:33:28;28.75;;;27.17;;
20381;SDS011;10350;51.280;12.400;2023-11-18T01:35:54;26.50;;;25.00;;
20381;SDS011;10350;51.280;12.400;2023-11-18T01:38:21;28.25;;;26.75;;
20381;SDS011;10350;51.280;12.400;2023-11-18T01:40:47;30.52;;;28.33;;
20381;SDS011;10350;51.280;12.400;2023-11-18T01:43:13;28.33;;;26.70;;
20381;SDS011;10350;51.280;12.400;2023-11-18T01:45:40;28.48;;;26.98;;
20381;SDS011;10350;51.280;12.400;2023-11-18T01:48:06;28.35;;;26.85;;
20381;SDS011;10350;51.280;12.400;2023-11-18T01:50:35;28.73;;;27.13;;
20381;SDS011;10350;51.280;12.400;2023-11-18T01:53:02;26.98;;;25.40;;
20381;SDS011;10350;51.280;12.400;2023-11-18T01:55:28;28.27;;;26.77;;
20381;SDS011;10350;51.280;12.400;2023-11-18T01:57:54;25.70;;;24.30;;
20381;SDS011;10350;51.280;12.400;2023-11-18T02:00:21;25.60;;;24.23;;
20381;SDS011;10350;51.280;12.400;2023-11-18T02:02:48;23.90;;;22.60;;
20381;SDS011;10350;51.280;12.400;2023-11-18T02:05:14;24.13;;;22.65;;
20381;SDS011;10350;51.280;12.400;2023-11-18T02:07:41;24.40;;;23.10;;
20381;SDS011;10350;51.280;12.400;2023-11-18T02:10:08;26.33;;;24.85;;
20381;SDS011;10350;51.280;12.400;2023-11-18T02:12:41;24.17;;;22.85;;
20381;SDS011;10350;51.280;12.400;2023-11-18T02:15:08;24.73;;;23.38;;
20381;SDS011;10350;51.280;12.400;2023-11-18T02:17:36;25.35;;;24.00;;
20381;SDS011;10350;51.280;12.400;2023-11-18T02:22:35;27.80;;;26.30;;
20381;SDS011;10350;51.280;12.400;2023-11-18T02:25:02;26.27;;;24.85;;
20381;SDS011;10350;51.280;12.400;2023-11-18T02:27:31;28.42;;;26.70;;
20381;SDS011;10350;51.280;12.400;2023-11-18T02:29:58;27.63;;;26.20;;
20381;SDS011;10350;51.280;12.400;2023-11-18T02:32:29;27.27;;;25.67;;
20381;SDS011;10350;51.280;12.400;2023-11-18T02:35:07;29.70;;;28.00;;
20381;SDS011;10350;51.280;12.400;2023-11-18T02:37:35;27.75;;;26.25;;
20381;SDS011;10350;51.280;12.400;2023-11-18T02:40:04;28.98;;;27.48;;
20381;SDS011;10350;51.280;12.400;2023-11-18T02:42:34;25.92;;;24.63;;
20381;SDS011;10350;51.280;12.400;2023-11-18T02:45:00;28.23;;;26.30;;
20381;SDS011;10350;51.280;12.400;2023-11-18T02:47:27;27.55;;;25.95;;
20381;SDS011;10350;51.280;12.400;2023-11-18T02:49:53;26.05;;;24.65;;
20381;SDS011;10350;51.280;12.400;2023-11-18T02:52:21;24.90;;;23.50;;
20381;SDS011;10350;51.280;12.400;2023-11-18T02:54:47;24.20;;;22.90;;
20381;SDS011;10350;51.280;12.400;2023-11-18T02:57:13;24.98;;;23.48;;
20381;SDS011;10350;51.280;12.400;2023-11-18T02:59:39;24.67;;;23.38;;
20381;SDS011;10350;51.280;12.400;2023-11-18T03:02:05;26.05;;;24.65;;
20381;SDS011;10350;51.280;12.400;2023-11-18T03:04:31;26.08;;;24.63;;
20381;SDS011;10350;51.280;12.400;2023-11-18T03:06:57;26.67;;;25.17;;
20381;SDS011;10350;51.280;12.400;2023-11-18T03:09:24;27.67;;;25.92;;
20381;SDS011;10350;51.280;12.400;2023-11-18T03:11:52;27.48;;;25.98;;
20381;SDS011;10350;51.280;12.400;2023-11-18T03:14:20;26.30;;;24.80;;
20381;SDS011;10350;51.280;12.400;2023-11-18T03:16:46;26.98;;;25.48;;
20381;SDS011;10350;51.280;12.400;2023-11-18T03:19:12;28.55;;;26.95;;
20381;SDS011;10350;51.280;12.400;2023-11-18T03:21:39;26.88;;;25.48;;
20381;SDS011;10350;51.280;12.400;2023-11-18T03:24:05;27.38;;;25.85;;
20381;SDS011;10350;51.280;12.400;2023-11-18T03:26:31;27.83;;;26.15;;
20381;SDS011;10350;51.280;12.400;2023-11-18T03:28:57;28.88;;;27.17;;
20381;SDS011;10350;51.280;12.400;2023-11-18T03:31:23;27.15;;;25.65;;
20381;SDS011;10350;51.280;12.400;2023-11-18T03:33:49;27.17;;;25.77;;
20381;SDS011;10350;51.280;12.400;2023-11-18T03:36:15;27.60;;;25.60;;
20381;SDS011;10350;51.280;12.400;2023-11-18T03:38:43;28.93;;;27.27;;
20381;SDS011;10350;51.280;12.400;2023-11-18T03:41:09;26.92;;;25.33;;
20381;SDS011;10350;51.280;12.400;2023-11-18T03:43:35;28.13;;;26.42;;
20381;SDS011;10350;51.280;12.400;2023-11-18T03:46:02;25.55;;;23.98;;
20381;SDS011;10350;51.280;12.400;2023-11-18T03:48:29;26.60;;;25.10;;
20381;SDS011;10350;51.280;12.400;2023-11-18T03:50:55;25.92;;;24.42;;
20381;SDS011;10350;51.280;12.400;2023-11-18T03:53:21;27.08;;;25.45;;
20381;SDS011;10350;51.280;12.400;2023-11-18T03:55:47;24.63;;;23.23;;
20381;SDS011;10350;51.280;12.400;2023-11-18T03:58:13;25.83;;;24.42;;
20381;SDS011;10350;51.280;12.400;2023-11-18T04:00:39;25.27;;;23.88;;
20381;SDS011;10350;51.280;12.400;2023-11-18T04:03:05;23.33;;;22.02;;
20381;SDS011;10350;51.280;12.400;2023-11-18T04:05:32;23.83;;;22.42;;
20381;SDS011;10350;51.280;12.400;2023-11-18T04:07:59;25.33;;;23.83;;
20381;SDS011;10350;51.280;12.400;2023-11-18T04:10:26;25.08;;;23.58;;
20381;SDS011;10350;51.280;12.400;2023-11-18T04:12:52;24.60;;;23.10;;
20381;SDS011;10350;51.280;12.400;2023-11-18T04:15:18;24.70;;;23.20;;
20381;SDS011;10350;51.280;12.400;2023-11-18T04:17:44;25.75;;;24.23;;
20381;SDS011;10350;51.280;12.400;2023-11-18T04:20:10;25.67;;;24.13;;
20381;SDS011;10350;51.280;12.400;2023-11-18T04:22:40;28.33;;;26.67;;
20381;SDS011;10350;51.280;12.400;2023-11-18T04:25:10;26.75;;;25.25;;
20381;SDS011;10350;51.280;12.400;2023-11-18T04:27:36;28.30;;;26.50;;
20381;SDS011;10350;51.280;12.400;2023-11-18T04:30:03;28.10;;;26.40;;
20381;SDS011;10350;51.280;12.400;2023-11-18T04:32:29;29.65;;;28.00;;
20381;SDS011;10350;51.280;12.400;2023-11-18T04:34:57;30.35;;;28.35;;
20381;SDS011;10350;51.280;12.400;2023-11-18T04:37:24;29.38;;;27.48;;
20381;SDS011;10350;51.280;12.400;2023-11-18T04:39:50;31.17;;;29.25;;
20381;SDS011;10350;51.280;12.400;2023-11-18T04:42:16;29.92;;;27.92;;
20381;SDS011;10350;51.280;12.400;2023-11-18T04:44:42;30.90;;;29.00;;
20381;SDS011;10350;51.280;12.400;2023-11-18T04:47:08;30.02;;;27.92;;
20381;SDS011;10350;51.280;12.400;2023-11-18T04:49:36;31.20;;;29.15;;
20381;SDS011;10350;51.280;12.400;2023-11-18T04:52:02;32.85;;;30.65;;
20381;SDS011;10350;51.280;12.400;2023-11-18T04:54:28;31.42;;;29.33;;
20381;SDS011;10350;51.280;12.400;2023-11-18T04:56:54;32.28;;;30.10;;
20381;SDS011;10350;51.280;12.400;2023-11-18T04:59:20;32.83;;;30.45;;
20381;SDS011;10350;51.280;12.400;2023-11-18T05:01:46;30.88;;;28.73;;
20381;SDS011;10350;51.280;12.400;2023-11-18T05:04:12;31.98;;;29.80;;
20381;SDS011;10350;51.280;12.400;2023-11-18T05:06:38;32.30;;;30.15;;
20381;SDS011;10350;51.280;12.400;2023-11-18T05:09:04;32.17;;;29.75;;
20381;SDS011;10350;51.280;12.400;2023-11-18T05:11:32;31.92;;;29.33;;
20381;SDS011;10350;51.280;12.400;2023-11-18T05:13:58;31.23;;;28.80;;
20381;SDS011;10350;51.280;12.400;2023-11-18T05:16:24;30.85;;;28.48;;
20381;SDS011;10350;51.280;12.400;2023-11-18T05:18:50;32.63;;;30.27;;
20381;SDS011;10350;51.280;12.400;2023-11-18T05:21:16;32.42;;;30.08;;
20381;SDS011;10350;51.280;12.400;2023-11-18T05:23:46;29.33;;;27.25;;
20381;SDS011;10350;51.280;12.400;2023-11-18T05:26:13;32.13;;;29.95;;
20381;SDS011;10350;51.280;12.400;2023-11-18T05:28:39;33.70;;;31.27;;
20381;SDS011;10350;51.280;12.400;2023-11-18T05:31:07;33.90;;;31.52;;
20381;SDS011;10350;51.280;12.400;2023-11-18T05:33:33;30.73;;;28.40;;
20381;SDS011;10350;51.280;12.400;2023-11-18T05:36:00;31.70;;;29.42;;
20381;SDS011;10350;51.280;12.400;2023-11-18T05:38:29;29.83;;;27.70;;
20381;SDS011;10350;51.280;12.400;2023-11-18T05:40:59;31.83;;;29.48;;
20381;SDS011;10350;51.280;12.400;2023-11-18T05:43:31;33.28;;;30.80;;
20381;SDS011;10350;51.280;12.400;2023-11-18T05:46:05;32.75;;;30.05;;
20381;SDS011;10350;51.280;12.400;2023-11-18T05:48:49;30.75;;;28.55;;
20381;SDS011;10350;51.280;12.400;2023-11-18T05:51:18;32.70;;;29.92;;
20381;SDS011;10350;51.280;12.400;2023-11-18T05:53:45;33.80;;;30.70;;
20381;SDS011;10350;51.280;12.400;2023-11-18T05:56:12;32.17;;;29.40;;
20381;SDS011;10350;51.280;12.400;2023-11-18T05:58:38;35.78;;;33.05;;
20381;SDS011;10350;51.280;12.400;2023-11-18T06:01:04;33.10;;;30.20;;
20381;SDS011;10350;51.280;12.400;2023-11-18T06:05:58;32.33;;;29.77;;
20381;SDS011;10350;51.280;12.400;2023-11-18T06:08:24;32.38;;;29.92;;
20381;SDS011;10350;51.280;12.400;2023-11-18T06:10:50;31.25;;;28.85;;
20381;SDS011;10350;51.280;12.400;2023-11-18T06:13:21;33.08;;;30.42;;
20381;SDS011;10350;51.280;12.400;2023-11-18T06:15:47;33.22;;;30.35;;
20381;SDS011;10350;51.280;12.400;2023-11-18T06:18:14;30.97;;;28.67;;
20381;SDS011;10350;51.280;12.400;2023-11-18T06:20:40;33.13;;;30.45;;
20381;SDS011;10350;51.280;12.400;2023-11-18T06:23:06;30.30;;;28.05;;
20381;SDS011;10350;51.280;12.400;2023-11-18T06:25:32;30.90;;;28.48;;
20381;SDS011;10350;51.280;12.400;2023-11-18T06:28:00;32.45;;;29.67;;
20381;SDS011;10350;51.280;12.400;2023-11-18T06:30:27;33.15;;;30.45;;
20381;SDS011;10350;51.280;12.400;2023-11-18T06:32:53;31.67;;;29.27;;
20381;SDS011;10350;51.280;12.400;2023-11-18T06:35:19;31.25;;;28.58;;
20381;SDS011;10350;51.280;12.400;2023-11-18T06:37:46;32.55;;;30.15;;
20381;SDS011;10350;51.280;12.400;2023-11-18T06:40:12;33.72;;;30.83;;
20381;SDS011;10350;51.280;12.400;2023-11-18T06:42:43;30.58;;;28.17;;
20381;SDS011;10350;51.280;12.400;2023-11-18T06:45:12;30.40;;;27.92;;
20381;SDS011;10350;51.280;12.400;2023-11-18T06:47:38;30.90;;;28.60;;
20381;SDS011;10350;51.280;12.400;2023-11-18T06:50:08;32.42;;;29.63;;
20381;SDS011;10350;51.280;12.400;2023-11-18T06:52:37;32.97;;;30.27;;
20381;SDS011;10350;51.280;12.400;2023-11-18T06:55:04;33.85;;;30.95;;
20381;SDS011;10350;51.280;12.400;2023-11-18T06:57:30;34.25;;;31.23;;
20381;SDS011;10350;51.280;12.400;2023-11-18T06:59:57;32.50;;;29.65;;
20381;SDS011;10350;51.280;12.400;2023-11-18T07:02:23;34.38;;;31.38;;
20381;SDS011;10350;51.280;12.400;2023-11-18T07:04:49;32.33;;;29.70;;
20381;SDS011;10350;51.280;12.400;2023-11-18T07:07:18;34.30;;;31.45;;
20381;SDS011;10350;51.280;12.400;2023-11-18T07:09:44;32.28;;;29.48;;
20381;SDS011;10350;51.280;12.400;2023-11-18T07:12:12;33.00;;;30.38;;
20381;SDS011;10350;51.280;12.400;2023-11-18T07:14:38;32.60;;;29.92;;
20381;SDS011;10350;51.280;12.400;2023-11-18T07:17:04;34.33;;;31.20;;
20381;SDS011;10350;51.280;12.400;2023-11-18T07:19:30;33.97;;;31.08;;
20381;SDS011;10350;51.280;12.400;2023-11-18T07:21:58;35.40;;;32.10;;
20381;SDS011;10350;51.280;12.400;2023-11-18T07:24:24;34.50;;;31.67;;
20381;SDS011;10350;51.280;12.400;2023-11-18T07:26:50;33.72;;;30.90;;
20381;SDS011;10350;51.280;12.400;2023-11-18T07:29:16;35.08;;;32.25;;
20381;SDS011;10350;51.280;12.400;2023-11-18T07:31:42;38.22;;;34.83;;
20381;SDS011;10350;51.280;12.400;2023-11-18T07:34:10;41.83;;;38.55;;
20381;SDS011;10350;51.280;12.400;2023-11-18T07:36:36;42.72;;;39.38;;
20381;SDS011;10350;51.280;12.400;2023-11-18T07:39:02;48.05;;;44.47;;
20381;SDS011;10350;51.280;12.400;2023-11-18T07:41:28;48.90;;;45.03;;
20381;SDS011;10350;51.280;12.400;2023-11-18T07:43:56;51.75;;;47.72;;
20381;SDS011;10350;51.280;12.400;2023-11-18T07:46:22;51.10;;;47.47;;
20381;SDS011;10350;51.280;12.400;2023-11-18T07:48:52;53.47;;;49.65;;
20381;SDS011;10350;51.280;12.400;2023-11-18T07:51:18;53.13;;;49.20;;
20381;SDS011;10350;51.280;12.400;2023-11-18T07:53:46;50.90;;;47.47;;
20381;SDS011;10350;51.280;12.400;2023-11-18T07:56:12;58.97;;;54.80;;
20381;SDS011;10350;51.280;12.400;2023-11-18T07:58:39;49.33;;;45.85;;
20381;SDS011;10350;51.280;12.400;2023-11-18T08:01:10;47.97;;;44.50;;
20381;SDS011;10350;51.280;12.400;2023-11-18T08:03:36;49.35;;;45.70;;
20381;SDS011;10350;51.280;12.400;2023-11-18T08:06:03;46.80;;;43.40;;
20381;SDS011;10350;51.280;12.400;2023-11-18T08:08:32;47.55;;;44.13;;
20381;SDS011;10350;51.280;12.400;2023-11-18T08:10:58;46.17;;;42.58;;
20381;SDS011;10350;51.280;12.400;2023-11-18T08:13:24;44.22;;;40.78;;
20381;SDS011;10350;51.280;12.400;2023-11-18T08:15:51;42.28;;;38.75;;
20381;SDS011;10350;51.280;12.400;2023-11-18T08:18:17;44.80;;;41.53;;
20381;SDS011;10350;51.280;12.400;2023-11-18T08:20:43;44.63;;;41.53;;
20381;SDS011;10350;51.280;12.400;2023-11-18T08:23:10;40.83;;;38.08;;
20381;SDS011;10350;51.280;12.400;2023-11-18T08:25:36;35.85;;;33.25;;
20381;SDS011;10350;51.280;12.400;2023-11-18T08:28:02;35.17;;;32.22;;
20381;SDS011;10350;51.280;12.400;2023-11-18T08:30:32;38.25;;;35.35;;
20381;SDS011;10350;51.280;12.400;2023-11-18T08:33:01;39.72;;;36.88;;
20381;SDS011;10350;51.280;12.400;2023-11-18T08:35:29;40.95;;;38.00;;
20381;SDS011;10350;51.280;12.400;2023-11-18T08:37:56;37.17;;;34.67;;
20381;SDS011;10350;51.280;12.400;2023-11-18T08:40:26;35.75;;;33.08;;
20381;SDS011;10350;51.280;12.400;2023-11-18T08:42:53;38.53;;;35.28;;
20381;SDS011;10350;51.280;12.400;2023-11-18T08:45:22;34.53;;;32.03;;
20381;SDS011;10350;51.280;12.400;2023-11-18T08:47:54;37.70;;;34.47;;
20381;SDS011;10350;51.280;12.400;2023-11-18T08:50:20;38.97;;;36.35;;
20381;SDS011;10350;51.280;12.400;2023-11-18T08:52:48;41.40;;;38.63;;
20381;SDS011;10350;51.280;12.400;2023-11-18T08:55:17;42.67;;;39.85;;
20381;SDS011;10350;51.280;12.400;2023-11-18T08:57:50;38.75;;;36.03;;
20381;SDS011;10350;51.280;12.400;2023-11-18T09:00:29;35.33;;;32.78;;
20381;SDS011;10350;51.280;12.400;2023-11-18T09:03:13;34.75;;;31.98;;
20381;SDS011;10350;51.280;12.400;2023-11-18T09:05:48;32.05;;;29.85;;
20381;SDS011;10350;51.280;12.400;2023-11-18T09:08:27;32.45;;;30.15;;
20381;SDS011;10350;51.280;12.400;2023-11-18T09:10:57;34.78;;;32.38;;
20381;SDS011;10350;51.280;12.400;2023-11-18T09:13:23;36.42;;;33.47;;
20381;SDS011;10350;51.280;12.400;2023-11-18T09:15:59;36.88;;;34.17;;
20381;SDS011;10350;51.280;12.400;2023-11-18T09:18:26;35.40;;;33.00;;
20381;SDS011;10350;51.280;12.400;2023-11-18T09:20:52;34.17;;;31.98;;
20381;SDS011;10350;51.280;12.400;2023-11-18T09:23:20;35.88;;;33.65;;
20381;SDS011;10350;51.280;12.400;2023-11-18T09:25:48;36.00;;;33.47;;
20381;SDS011;10350;51.280;12.400;2023-11-18T09:28:15;37.55;;;34.80;;
20381;SDS011;10350;51.280;12.400;2023-11-18T09:30:41;35.70;;;33.28;;
20381;SDS011;10350;51.280;12.400;2023-11-18T09:33:22;34.20;;;31.55;;
20381;SDS011;10350;51.280;12.400;2023-11-18T09:36:04;39.30;;;36.53;;
20381;SDS011;10350;51.280;12.400;2023-11-18T09:38:35;38.10;;;35.60;;
20381;SDS011;10350;51.280;12.400;2023-11-18T09:41:02;36.53;;;33.90;;
20381;SDS011;10350;51.280;12.400;2023-11-18T09:43:31;37.95;;;35.40;;
20381;SDS011;10350;51.280;12.400;2023-11-18T09:46:04;39.25;;;36.50;;
20381;SDS011;10350;51.280;12.400;2023-11-18T09:48:37;39.53;;;36.10;;
20381;SDS011;10350;51.280;12.400;2023-11-18T09:51:05;39.38;;;36.67;;
20381;SDS011;10350;51.280;12.400;2023-11-18T09:53:33;37.72;;;34.95;;
20381;SDS011;10350;51.280;12.400;2023-11-18T09:56:10;37.58;;;34.97;;
20381;SDS011;10350;51.280;12.400;2023-11-18T09:58:45;33.50;;;31.42;;
20381;SDS011;10350;51.280;12.400;2023-11-18T10:01:15;34.63;;;32.08;;
20381;SDS011;10350;51.280;12.400;2023-11-18T10:03:44;46.63;;;43.55;;
20381;SDS011;10350;51.280;12.400;2023-11-18T10:06:12;51.33;;;47.97;;
20381;SDS011;10350;51.280;12.400;2023-11-18T10:08:41;56.10;;;52.28;;
20381;SDS011;10350;51.280;12.400;2023-11-18T10:11:11;48.65;;;45.33;;
20381;SDS011;10350;51.280;12.400;2023-11-18T10:13:41;47.88;;;45.00;;
20381;SDS011;10350;51.280;12.400;2023-11-18T10:16:09;49.05;;;45.97;;
20381;SDS011;10350;51.280;12.400;2023-11-18T10:18:35;45.67;;;42.58;;
20381;SDS011;10350;51.280;12.400;2023-11-18T10:21:01;47.85;;;44.70;;
20381;SDS011;10350;51.280;12.400;2023-11-18T10:23:29;42.63;;;39.92;;
20381;SDS011;10350;51.280;12.400;2023-11-18T10:25:58;46.22;;;43.20;;
20381;SDS011;10350;51.280;12.400;2023-11-18T10:31:07;45.67;;;42.55;;
20381;SDS011;10350;51.280;12.400;2023-11-18T10:33:35;47.15;;;44.05;;
20381;SDS011;10350;51.280;12.400;2023-11-18T10:36:02;48.17;;;44.90;;
20381;SDS011;10350;51.280;12.400;2023-11-18T10:38:42;44.35;;;41.45;;
20381;SDS011;10350;51.280;12.400;2023-11-18T11:04:24;32.35;;;30.10;;
20381;SDS011;10350;51.280;12.400;2023-11-18T13:32:53;28.25;;;26.45;;
20381;SDS011;10350;51.280;12.400;2023-11-18T13:35:23;28.42;;;26.63;;
20381;SDS011;10350;51.280;12.400;2023-11-18T13:37:50;27.85;;;26.20;;
20381;SDS011;10350;51.280;12.400;2023-11-18T13:43:05;28.42;;;26.67;;
20381;SDS011;10350;51.280;12.400;2023-11-18T13:45:33;28.80;;;26.88;;
20381;SDS011;10350;51.280;12.400;2023-11-18T14:07:03;29.42;;;27.63;;
20381;SDS011;10350;51.280;12.400;2023-11-18T14:09:34;28.55;;;26.65;;
20381;SDS011;10350;51.280;12.400;2023-11-18T14:12:06;30.20;;;27.63;;
20381;SDS011;10350;51.280;12.400;2023-11-18T14:14:32;30.23;;;28.23;;
20381;SDS011;10350;51.280;12.400;2023-11-18T14:17:01;29.55;;;27.70;;
20381;SDS011;10350;51.280;12.400;2023-11-18T14:19:30;28.73;;;26.83;;
20381;SDS011;10350;51.280;12.400;2023-11-18T14:21:56;28.80;;;27.00;;
20381;SDS011;10350;51.280;12.400;2023-11-18T14:24:25;28.33;;;26.48;;
20381;SDS011;10350;51.280;12.400;2023-11-18T14:29:23;28.45;;;26.52;;
20381;SDS011;10350;51.280;12.400;2023-11-18T14:31:51;29.70;;;27.02;;
20381;SDS011;10350;51.280;12.400;2023-11-18T14:34:18;30.13;;;28.00;;
20381;SDS011;10350;51.280;12.400;2023-11-18T14:36:47;27.60;;;25.70;;
20381;SDS011;10350;51.280;12.400;2023-11-18T14:39:13;27.20;;;25.35;;
20381;SDS011;10350;51.280;12.400;2023-11-18T14:41:42;28.27;;;26.48;;
20381;SDS011;10350;51.280;12.400;2023-11-18T14:44:08;29.00;;;27.02;;
20381;SDS011;10350;51.280;12.400;2023-11-18T14:46:37;29.58;;;27.63;;
20381;SDS011;10350;51.280;12.400;2023-11-18T14:49:06;30.77;;;28.10;;
20381;SDS011;10350;51.280;12.400;2023-11-18T14:51:34;29.15;;;27.35;;
20381;SDS011;10350;51.280;12.400;2023-11-18T14:54:00;28.10;;;26.10;;
20381;SDS011;10350;51.280;12.400;2023-11-18T14:56:27;28.85;;;27.05;;
20381;SDS011;10350;51.280;12.400;2023-11-18T14:58:53;30.33;;;28.42;;
20381;SDS011;10350;51.280;12.400;2023-11-18T15:01:19;28.35;;;26.35;;
20381;SDS011;10350;51.280;12.400;2023-11-18T15:03:45;27.95;;;26.05;;
20381;SDS011;10350;51.280;12.400;2023-11-18T15:06:11;27.80;;;26.00;;
20381;SDS011;10350;51.280;12.400;2023-11-18T15:08:37;29.42;;;27.63;;
20381;SDS011;10350;51.280;12.400;2023-11-18T15:11:07;28.58;;;26.58;;
20381;SDS011;10350;51.280;12.400;2023-11-18T15:13:33;27.50;;;25.60;;
20381;SDS011;10350;51.280;12.400;2023-11-18T15:15:59;28.42;;;26.52;;
20381;SDS011;10350;51.280;12.400;2023-11-18T15:18:24;27.42;;;25.65;;
20381;SDS011;10350;51.280;12.400;2023-11-18T15:23:55;28.75;;;26.77;;
20381;SDS011;10350;51.280;12.400;2023-11-18T15:26:25;28.70;;;26.58;;
20381;SDS011;10350;51.280;12.400;2023-11-18T15:28:52;28.00;;;25.70;;
20381;SDS011;10350;51.280;12.400;2023-11-18T15:31:24;28.35;;;26.05;;
20381;SDS011;10350;51.280;12.400;2023-11-18T15:33:50;29.23;;;27.23;;
20381;SDS011;10350;51.280;12.400;2023-11-18T15:36:16;28.55;;;26.42;;
20381;SDS011;10350;51.280;12.400;2023-11-18T15:38:42;29.30;;;27.27;;
20381;SDS011;10350;51.280;12.400;2023-11-18T15:41:08;29.88;;;27.58;;
20381;SDS011;10350;51.280;12.400;2023-11-18T15:43:51;29.77;;;27.60;;
20381;SDS011;10350;51.280;12.400;2023-11-18T15:46:33;32.75;;;30.30;;
20381;SDS011;10350;51.280;12.400;2023-11-18T15:49:22;34.90;;;32.47;;
20381;SDS011;10350;51.280;12.400;2023-11-18T15:51:50;34.90;;;32.42;;
20381;SDS011;10350;51.280;12.400;2023-11-18T15:57:20;37.45;;;34.92;;
20381;SDS011;10350;51.280;12.400;2023-11-18T15:59:49;37.90;;;35.40;;
20381;SDS011;10350;51.280;12.400;2023-11-18T16:02:15;38.47;;;35.50;;
20381;SDS011;10350;51.280;12.400;2023-11-18T16:04:41;37.88;;;34.95;;
20381;SDS011;10350;51.280;12.400;2023-11-18T16:07:11;39.17;;;36.45;;
20381;SDS011;10350;51.280;12.400;2023-11-18T16:09:38;39.28;;;36.70;;
20381;SDS011;10350;51.280;12.400;2023-11-18T16:12:04;38.80;;;36.15;;
20381;SDS011;10350;51.280;12.400;2023-11-18T16:14:32;40.15;;;37.33;;
20381;SDS011;10350;51.280;12.400;2023-11-18T16:16:58;40.85;;;38.08;;
20381;SDS011;10350;51.280;12.400;2023-11-18T16:19:24;39.40;;;36.45;;
20381;SDS011;10350;51.280;12.400;2023-11-18T16:21:58;39.47;;;36.60;;
20381;SDS011;10350;51.280;12.400;2023-11-18T16:27:24;40.08;;;37.30;;
20381;SDS011;10350;51.280;12.400;2023-11-18T16:32:58;39.25;;;36.53;;
20381;SDS011;10350;51.280;12.400;2023-11-18T16:41:26;44.83;;;41.45;;
20381;SDS011;10350;51.280;12.400;2023-11-18T16:43:53;42.35;;;39.00;;
20381;SDS011;10350;51.280;12.400;2023-11-18T16:46:19;39.28;;;36.35;;
20381;SDS011;10350;51.280;12.400;2023-11-18T16:48:46;42.05;;;39.10;;
20381;SDS011;10350;51.280;12.400;2023-11-18T16:51:12;39.13;;;36.50;;
20381;SDS011;10350;51.280;12.400;2023-11-18T16:53:38;40.03;;;37.13;;
20381;SDS011;10350;51.280;12.400;2023-11-18T16:56:04;41.70;;;38.72;;
20381;SDS011;10350;51.280;12.400;2023-11-18T16:58:30;43.75;;;40.60;;
20381;SDS011;10350;51.280;12.400;2023-11-18T17:00:57;42.80;;;39.58;;
20381;SDS011;10350;51.280;12.400;2023-11-18T17:03:24;44.17;;;40.65;;
20381;SDS011;10350;51.280;12.400;2023-11-18T17:05:50;41.40;;;38.55;;
20381;SDS011;10350;51.280;12.400;2023-11-18T17:08:19;39.10;;;36.33;;
20381;SDS011;10350;51.280;12.400;2023-11-18T17:10:45;39.00;;;36.30;;
20381;SDS011;10350;51.280;12.400;2023-11-18T17:13:24;41.35;;;38.63;;
20381;SDS011;10350;51.280;12.400;2023-11-18T17:15:58;41.22;;;38.63;;
20381;SDS011;10350;51.280;12.400;2023-11-18T17:18:24;39.88;;;37.30;;
20381;SDS011;10350;51.280;12.400;2023-11-18T17:20:50;37.00;;;34.78;;
20381;SDS011;10350;51.280;12.400;2023-11-18T17:23:16;37.17;;;34.92;;
20381;SDS011;10350;51.280;12.400;2023-11-18T17:25:46;38.15;;;35.70;;
20381;SDS011;10350;51.280;12.400;2023-11-18T17:28:20;40.22;;;37.53;;
20381;SDS011;10350;51.280;12.400;2023-11-18T17:30:46;38.63;;;36.42;;
20381;SDS011;10350;51.280;12.400;2023-11-18T17:33:12;37.95;;;35.58;;
20381;SDS011;10350;51.280;12.400;2023-11-18T17:35:48;35.05;;;32.95;;
20381;SDS011;10350;51.280;12.400;2023-11-18T17:38:14;38.45;;;36.08;;
20381;SDS011;10350;51.280;12.400;2023-11-18T17:40:41;36.70;;;34.08;;
20381;SDS011;10350;51.280;12.400;2023-11-18T17:43:08;37.20;;;34.60;;
20381;SDS011;10350;51.280;12.400;2023-11-18T17:45:35;36.80;;;34.50;;
20381;SDS011;10350;51.280;12.400;2023-11-18T17:48:02;35.60;;;33.35;;
20381;SDS011;10350;51.280;12.400;2023-11-18T17:50:31;39.53;;;37.17;;